Time;durP1;ratioP1;P1;durP2;ratioP2;P2;SDS_P1;SDS_P2;PMS_P1;PMS_P2;Temp;Humidity;BMP_temperature;BMP_pressure;BME280_temperature;BME280_humidity;BME280_pressure;Samples;Min_cycle;Max_cycle;Signal;HPM_P1;HPM_P2
2023/06/11 00:02:11;;;;;;;2.33;0.90;;;26.30;61.60;;;;;;7403906;19;19951;-59
2023/06/11 00:04:45;;;;;;;2.13;1.25;;;26.30;61.60;;;;;;7406162;19;19935;-60
2023/06/11 00:07:14;;;;;;;2.38;1.42;;;26.30;61.60;;;;;;7406525;19;19915;-60
2023/06/11 00:09:43;;;;;;;2.20;1.45;;;26.30;61.60;;;;;;7404488;19;20295;-60
2023/06/11 00:12:13;;;;;;;3.42;1.15;;;26.30;61.70;;;;;;7404008;19;19946;-60
2023/06/11 00:14:41;;;;;;;;;;;26.20;61.60;;;;;;7408458;19;19931;-60
2023/06/11 00:17:13;;;;;;;1.98;1.17;;;26.20;61.60;;;;;;7405971;19;19934;-60
2023/06/11 00:19:47;;;;;;;2.25;1.33;;;26.20;61.70;;;;;;7405868;19;20344;-60
2023/06/11 00:22:27;;;;;;;3.13;1.17;;;26.10;61.70;;;;;;7405092;19;19907;-60
2023/06/11 00:24:56;;;;;;;2.05;1.15;;;26.20;61.70;;;;;;7406059;19;19958;-60
2023/06/11 00:27:25;;;;;;;2.80;1.30;;;26.10;61.70;;;;;;7406122;19;20506;-60
2023/06/11 00:29:56;;;;;;;2.92;1.85;;;26.10;61.70;;;;;;7406516;19;20022;-60
2023/06/11 00:32:25;;;;;;;2.33;1.45;;;26.10;61.80;;;;;;7404542;19;19918;-61
2023/06/11 00:34:57;;;;;;;2.75;1.23;;;26.10;62.40;;;;;;7405035;19;19914;-60
2023/06/11 00:37:26;;;;;;;2.63;1.25;;;26.10;61.80;;;;;;7405118;19;19946;-62
2023/06/11 00:39:55;;;;;;;2.35;1.30;;;26.00;61.80;;;;;;7405496;19;19926;-60
2023/06/11 00:42:33;;;;;;;2.22;1.13;;;26.00;61.80;;;;;;7403720;19;20278;-60
2023/06/11 00:45:04;;;;;;;2.55;1.25;;;26.00;61.80;;;;;;7405117;19;19914;-60
2023/06/11 00:47:37;;;;;;;2.30;1.33;;;26.00;61.90;;;;;;7405064;19;20277;-60
2023/06/11 00:50:12;;;;;;;2.88;1.33;;;26.00;61.90;;;;;;7405488;19;20279;-59
2023/06/11 00:52:51;;;;;;;2.13;1.13;;;26.00;61.90;;;;;;7406267;19;20388;-60
2023/06/11 00:55:22;;;;;;;2.53;1.08;;;26.00;61.90;;;;;;7405979;19;19956;-60
2023/06/11 00:57:53;;;;;;;2.80;1.40;;;25.90;61.90;;;;;;7403947;19;20012;-60
2023/06/11 01:00:22;;;;;;;2.40;1.20;;;25.90;61.90;;;;;;7404368;19;19937;-61
2023/06/11 01:02:57;;;;;;;;;;;25.90;62.00;;;;;;7404572;19;19923;-60
2023/06/11 01:05:43;;;;;;;2.58;1.27;;;25.90;62.10;;;;;;7404784;19;19982;-61
2023/06/11 01:08:12;;;;;;;;;;;25.90;62.10;;;;;;7405827;19;19911;-59
2023/06/11 01:10:42;;;;;;;2.65;1.55;;;25.80;62.00;;;;;;7403829;19;19922;-60
2023/06/11 01:13:23;;;;;;;2.72;1.35;;;25.80;62.10;;;;;;7404639;19;19915;-60
2023/06/11 01:16:03;;;;;;;3.15;1.67;;;25.80;62.10;;;;;;7404117;19;19919;-60
2023/06/11 01:18:58;;;;;;;3.28;1.27;;;25.70;62.10;;;;;;7403335;19;19915;-60
2023/06/11 01:21:48;;;;;;;2.67;1.58;;;25.70;62.10;;;;;;7404474;19;19914;-60
2023/06/11 01:24:24;;;;;;;2.85;1.42;;;25.70;62.10;;;;;;7403371;19;19925;-60
2023/06/11 01:27:21;;;;;;;2.15;1.20;;;25.70;62.10;;;;;;7402896;19;19926;-60
2023/06/11 01:29:56;;;;;;;2.92;1.33;;;25.70;62.20;;;;;;7404570;19;20559;-60
2023/06/11 01:32:28;;;;;;;3.03;1.60;;;25.70;62.20;;;;;;7402683;19;19921;-60
2023/06/11 01:35:03;;;;;;;3.63;1.65;;;25.70;62.20;;;;;;7404327;19;19929;-60
2023/06/11 01:37:32;;;;;;;2.50;1.42;;;25.60;62.20;;;;;;7404155;19;19963;-60
2023/06/11 01:40:01;;;;;;;;;;;25.60;62.20;;;;;;7405826;19;19915;-60
2023/06/11 01:42:33;;;;;;;2.78;1.58;;;25.60;62.20;;;;;;7401763;19;19919;-59
2023/06/11 01:45:05;;;;;;;2.40;1.75;;;25.60;62.30;;;;;;7404341;19;19919;-60
2023/06/11 01:47:35;;;;;;;2.35;1.33;;;25.60;62.30;;;;;;7403594;19;19926;-60
2023/06/11 01:50:04;;;;;;;3.40;2.17;;;25.50;62.30;;;;;;7404092;19;19919;-60
2023/06/11 01:52:33;;;;;;;2.50;1.60;;;25.50;62.30;;;;;;7403625;19;19931;-60
2023/06/11 01:55:15;;;;;;;2.30;1.33;;;25.50;62.40;;;;;;7404783;19;19919;-60
2023/06/11 01:57:46;;;;;;;2.75;1.15;;;25.50;62.50;;;;;;7403777;19;19914;-63
2023/06/11 02:00:18;;;;;;;2.25;1.52;;;25.50;62.50;;;;;;7402554;19;19974;-61
2023/06/11 02:02:50;;;;;;;3.40;1.67;;;25.50;62.50;;;;;;7401364;19;19939;-60
2023/06/11 02:05:19;;;;;;;2.20;1.20;;;25.40;62.50;;;;;;7402406;19;19970;-60
2023/06/11 02:08:04;;;;;;;2.45;1.63;;;25.40;62.40;;;;;;7401931;19;19927;-62
2023/06/11 02:10:33;;;;;;;2.45;1.55;;;25.40;62.40;;;;;;7401835;19;19933;-61
2023/06/11 02:13:02;;;;;;;2.58;1.92;;;25.40;62.50;;;;;;7402655;19;19939;-60
2023/06/11 02:15:34;;;;;;;2.55;1.42;;;25.30;62.50;;;;;;7402796;19;19926;-60
2023/06/11 02:18:23;;;;;;;3.33;1.67;;;25.40;62.60;;;;;;7400038;19;19922;-60
2023/06/11 02:20:52;;;;;;;2.95;1.77;;;25.40;62.60;;;;;;7402815;19;19947;-60
2023/06/11 02:23:21;;;;;;;2.28;1.40;;;25.30;62.60;;;;;;7401138;19;19918;-60
2023/06/11 02:25:50;;;;;;;;;;;25.40;62.60;;;;;;7410811;19;19978;-59
2023/06/11 02:28:19;;;;;;;2.67;1.42;;;25.30;62.50;;;;;;7408272;19;19939;-60
2023/06/11 02:30:51;;;;;;;2.42;1.13;;;25.30;62.60;;;;;;7407932;19;19940;-60
2023/06/11 02:33:25;;;;;;;3.15;1.55;;;25.30;62.60;;;;;;7407716;19;20037;-61
2023/06/11 02:35:57;;;;;;;3.60;1.90;;;25.30;62.70;;;;;;7407336;19;19918;-60
2023/06/11 02:38:26;;;;;;;2.60;1.67;;;25.20;62.70;;;;;;7408950;19;20928;-61
2023/06/11 02:40:55;;;;;;;2.45;1.80;;;25.20;62.70;;;;;;7408749;19;19922;-60
2023/06/11 02:43:29;;;;;;;2.20;1.50;;;25.20;62.70;;;;;;7406511;19;20308;-60
2023/06/11 02:46:01;;;;;;;3.13;1.92;;;25.20;62.80;;;;;;7409034;19;19918;-60
2023/06/11 02:48:30;;;;;;;2.72;1.70;;;25.10;62.70;;;;;;7408197;19;19911;-60
2023/06/11 02:50:59;;;;;;;2.88;1.67;;;25.20;62.80;;;;;;7407806;19;19926;-60
2023/06/11 02:53:28;;;;;;;3.90;1.73;;;25.20;62.80;;;;;;7408764;19;20369;-60
2023/06/11 02:56:00;;;;;;;2.55;1.65;;;25.10;62.80;;;;;;7406594;19;19922;-60
2023/06/11 02:58:29;;;;;;;3.97;1.88;;;25.10;62.80;;;;;;7408734;19;19946;-60
2023/06/11 03:01:01;;;;;;;2.55;1.67;;;25.10;62.80;;;;;;7409373;19;19915;-60
2023/06/11 03:03:31;;;;;;;2.92;2.05;;;25.10;62.80;;;;;;7405400;19;20344;-60
2023/06/11 03:06:00;;;;;;;2.20;1.45;;;25.10;62.80;;;;;;7407914;19;19922;-60
2023/06/11 03:08:29;;;;;;;3.33;1.75;;;25.10;62.80;;;;;;7405719;19;19958;-60
2023/06/11 03:10:58;;;;;;;3.13;1.80;;;25.10;62.80;;;;;;7407374;19;19926;-60
2023/06/11 03:13:27;;;;;;;4.03;1.63;;;25.00;62.80;;;;;;7407628;19;19914;-60
2023/06/11 03:16:08;;;;;;;2.53;1.73;;;25.00;62.90;;;;;;7408208;19;19922;-60
2023/06/11 03:18:37;;;;;;;5.53;2.53;;;25.00;62.90;;;;;;7407614;19;20327;-60
2023/06/11 03:21:06;;;;;;;5.50;3.13;;;25.00;62.90;;;;;;7407657;19;19927;-60
2023/06/11 03:23:35;;;;;;;3.92;2.35;;;25.00;62.90;;;;;;7405889;19;19929;-59
2023/06/11 03:26:05;;;;;;;3.85;2.72;;;25.00;62.90;;;;;;7408230;19;19919;-60
2023/06/11 03:28:34;;;;;;;6.57;2.60;;;25.00;63.00;;;;;;7407307;19;19936;-60
2023/06/11 03:31:25;;;;;;;4.63;2.17;;;24.90;62.90;;;;;;7405516;19;20295;-59
2023/06/11 03:33:57;;;;;;;5.18;2.97;;;24.90;63.70;;;;;;7405767;19;19915;-59
2023/06/11 03:36:27;;;;;;;4.85;2.78;;;24.90;63.10;;;;;;7405641;19;19923;-59
2023/06/11 03:38:56;;;;;;;5.20;2.83;;;24.90;63.80;;;;;;7407467;19;20348;-60
2023/06/11 03:41:25;;;;;;;6.38;3.10;;;24.90;63.30;;;;;;7406514;19;19919;-59
2023/06/11 03:43:54;;;;;;;7.18;3.72;;;24.90;63.50;;;;;;7405254;19;19923;-60
2023/06/11 03:46:26;;;;;;;9.13;2.97;;;24.90;63.50;;;;;;7406923;19;19926;-60
2023/06/11 03:49:00;;;;;;;6.40;2.97;;;24.90;63.60;;;;;;7407383;19;19922;-60
2023/06/11 03:51:49;;;;;;;7.95;3.35;;;24.80;63.70;;;;;;7406171;19;19918;-60
2023/06/11 03:54:18;;;;;;;7.05;3.25;;;24.80;63.80;;;;;;7407337;19;20248;-60
2023/06/11 03:56:47;;;;;;;5.50;3.28;;;24.80;64.00;;;;;;7407160;19;19930;-60
2023/06/11 03:59:36;;;;;;;6.85;3.33;;;24.80;64.00;;;;;;7404799;19;20360;-60
2023/06/11 04:02:08;;;;;;;7.80;3.65;;;24.80;64.20;;;;;;7405753;19;19926;-61
2023/06/11 04:04:58;;;;;;;7.47;4.00;;;24.80;64.30;;;;;;7405282;19;19923;-60
2023/06/11 04:07:35;;;;;;;6.38;3.70;;;24.80;64.40;;;;;;7405312;19;19917;-60
2023/06/11 04:10:04;;;;;;;7.25;3.33;;;24.80;64.60;;;;;;7406704;19;19944;-60
2023/06/11 04:12:33;;;;;;;8.13;3.22;;;24.70;64.70;;;;;;7405249;19;19918;-61
2023/06/11 04:15:02;;;;;;;10.20;3.53;;;24.80;64.80;;;;;;7406183;19;19918;-60
2023/06/11 04:17:35;;;;;;;8.35;3.72;;;24.70;64.90;;;;;;7405154;19;19926;-60
2023/06/11 04:20:07;;;;;;;6.47;3.30;;;24.70;65.00;;;;;;7406518;19;19933;-60
2023/06/11 04:22:43;;;;;;;8.05;3.90;;;24.70;65.10;;;;;;7405438;19;19922;-60
2023/06/11 04:25:16;;;;;;;7.03;4.05;;;24.70;65.20;;;;;;7406437;19;19988;-60
2023/06/11 04:27:56;;;;;;;8.18;3.40;;;24.70;65.20;;;;;;7405596;19;20388;-60
2023/06/11 04:30:26;;;;;;;10.18;4.00;;;24.70;65.30;;;;;;7406066;19;19930;-60
2023/06/11 04:32:58;;;;;;;9.68;4.28;;;24.70;65.40;;;;;;7404732;19;19932;-60
2023/06/11 04:35:28;;;;;;;4.70;3.13;;;24.70;65.40;;;;;;7403624;19;19926;-60
2023/06/11 04:37:58;;;;;;;8.88;3.67;;;24.70;65.50;;;;;;7406003;19;19926;-60
2023/06/11 04:40:27;;;;;;;7.38;3.70;;;24.70;65.40;;;;;;7404300;19;19918;-60
2023/06/11 04:42:57;;;;;;;6.70;3.72;;;24.70;65.40;;;;;;7404630;19;19907;-60
2023/06/11 04:45:26;;;;;;;10.65;4.65;;;24.70;65.30;;;;;;7403493;19;19922;-60
2023/06/11 04:48:03;;;;;;;8.95;3.47;;;24.70;65.30;;;;;;7403688;19;19926;-60
2023/06/11 04:50:32;;;;;;;6.50;3.03;;;24.70;65.30;;;;;;7404550;19;19917;-60
2023/06/11 04:53:04;;;;;;;6.82;2.95;;;24.70;65.30;;;;;;7405608;19;19922;-60
2023/06/11 04:55:38;;;;;;;6.50;3.72;;;24.70;65.80;;;;;;7404988;19;19938;-58
2023/06/11 04:58:08;;;;;;;6.18;3.60;;;24.70;65.20;;;;;;7405740;19;19981;-58
2023/06/11 05:00:37;;;;;;;7.10;3.10;;;24.70;65.20;;;;;;7404067;19;19930;-58
2023/06/11 05:03:09;;;;;;;5.97;2.95;;;24.70;65.10;;;;;;7403381;19;20529;-58
2023/06/11 05:05:39;;;;;;;5.68;3.25;;;24.70;65.20;;;;;;7403824;19;19995;-58
2023/06/11 05:08:08;;;;;;;10.90;3.85;;;24.70;65.10;;;;;;7404724;19;19915;-61
2023/06/11 05:10:37;;;;;;;6.32;3.00;;;24.70;65.00;;;;;;7405211;19;19919;-58
2023/06/11 05:13:09;;;;;;;6.97;3.63;;;24.70;65.00;;;;;;7404295;19;19922;-58
2023/06/11 05:15:38;;;;;;;6.43;3.53;;;24.60;64.90;;;;;;7404125;19;19914;-58
2023/06/11 05:18:18;;;;;;;6.18;3.92;;;24.70;65.00;;;;;;7404404;19;19958;-58
2023/06/11 05:20:48;;;;;;;6.20;3.28;;;24.70;64.90;;;;;;7404686;19;19939;-59
2023/06/11 05:23:18;;;;;;;6.80;3.30;;;24.70;64.90;;;;;;7403515;19;19927;-60
2023/06/11 05:25:50;;;;;;;6.45;3.67;;;24.70;64.90;;;;;;7404867;19;20351;-58
2023/06/11 05:28:33;;;;;;;6.82;3.53;;;24.70;64.80;;;;;;7403009;19;19923;-58
2023/06/11 05:31:17;;;;;;;5.50;3.15;;;24.70;64.80;;;;;;7402201;19;19918;-58
2023/06/11 05:33:49;;;;;;;6.43;3.40;;;24.70;64.80;;;;;;7403737;19;20277;-58
2023/06/11 05:36:18;;;;;;;5.60;3.05;;;24.70;64.80;;;;;;7402215;19;20309;-58
2023/06/11 05:38:52;;;;;;;6.63;3.05;;;24.70;64.80;;;;;;7403874;19;20299;-58
2023/06/11 05:41:21;;;;;;;6.85;3.35;;;24.70;64.70;;;;;;7404401;19;20083;-59
2023/06/11 05:43:50;;;;;;;6.35;3.55;;;24.70;64.70;;;;;;7402585;19;19993;-60
2023/06/11 05:46:26;;;;;;;5.65;3.40;;;24.70;64.70;;;;;;7402429;19;20336;-61
2023/06/11 05:48:58;;;;;;;;;;;24.70;64.60;;;;;;7404965;19;19922;-60
2023/06/11 05:51:38;;;;;;;5.60;3.47;;;24.70;64.60;;;;;;7403041;19;19967;-59
2023/06/11 05:54:07;;;;;;;;;;;24.70;64.60;;;;;;7404334;19;19918;-60
2023/06/11 05:56:37;;;;;;;7.40;3.65;;;24.70;64.60;;;;;;7402748;19;19922;-60
2023/06/11 05:59:26;;;;;;;6.03;3.28;;;24.80;64.60;;;;;;7407256;19;19949;-59
2023/06/11 06:02:15;;;;;;;5.03;3.22;;;24.80;64.50;;;;;;7407240;19;19922;-59
2023/06/11 06:05:07;;;;;;;5.68;3.10;;;24.80;64.50;;;;;;7408262;19;19978;-59
2023/06/11 06:07:57;;;;;;;4.72;3.15;;;24.80;64.60;;;;;;7406368;19;19927;-59
2023/06/11 06:10:38;;;;;;;6.70;3.20;;;24.80;64.50;;;;;;7407845;19;20422;-59
2023/06/11 06:13:07;;;;;;;6.95;3.33;;;24.80;64.50;;;;;;7409413;19;19918;-59
2023/06/11 06:15:36;;;;;;;6.65;3.75;;;24.80;64.40;;;;;;7407990;19;19914;-59
2023/06/11 06:18:05;;;;;;;4.78;2.97;;;24.80;64.40;;;;;;7408617;19;20353;-59
2023/06/11 06:20:37;;;;;;;4.30;2.72;;;24.80;64.30;;;;;;7407701;19;19951;-59
2023/06/11 06:23:07;;;;;;;5.72;3.10;;;24.80;64.30;;;;;;7408376;19;19926;-60
2023/06/11 06:25:54;;;;;;;5.45;3.38;;;24.80;64.30;;;;;;7408131;19;19919;-59
2023/06/11 06:28:23;;;;;;;5.72;3.15;;;24.80;64.20;;;;;;7409803;19;19939;-60
2023/06/11 06:30:52;;;;;;;6.95;3.05;;;24.90;64.20;;;;;;7408389;19;19922;-62
2023/06/11 06:33:24;;;;;;;5.13;3.08;;;24.90;64.30;;;;;;7407743;19;20365;-60
2023/06/11 06:35:56;;;;;;;7.57;3.47;;;24.90;64.20;;;;;;7407140;19;19927;-60
2023/06/11 06:38:25;;;;;;;5.32;2.90;;;24.90;64.20;;;;;;7409310;19;19918;-60
2023/06/11 06:41:03;;;;;;;6.63;3.28;;;24.90;64.20;;;;;;7408358;19;19919;-59
2023/06/11 06:43:32;;;;;;;;;;;24.90;64.20;;;;;;7409381;19;19926;-59
2023/06/11 06:46:02;;;;;;;5.70;3.00;;;24.90;64.10;;;;;;7407857;19;19947;-60
2023/06/11 06:48:31;;;;;;;;;;;24.90;64.10;;;;;;7409778;19;20381;-59
2023/06/11 06:51:03;;;;;;;4.22;2.88;;;24.90;64.10;;;;;;7409167;19;19953;-59
2023/06/11 06:53:32;;;;;;;4.90;3.05;;;24.90;64.10;;;;;;7407532;19;19914;-59
2023/06/11 06:56:02;;;;;;;5.05;3.10;;;24.90;64.10;;;;;;7408296;19;19918;-58
2023/06/11 06:58:31;;;;;;;5.35;3.17;;;24.90;64.00;;;;;;7407561;19;19966;-59
2023/06/11 07:01:00;;;;;;;4.57;2.90;;;25.00;64.00;;;;;;7408413;19;19982;-59
2023/06/11 07:03:30;;;;;;;5.07;2.63;;;25.00;64.00;;;;;;7406808;19;19918;-60
2023/06/11 07:06:08;;;;;;;6.00;3.05;;;25.00;64.00;;;;;;7407482;19;19914;-59
2023/06/11 07:08:38;;;;;;;5.90;2.80;;;25.00;64.00;;;;;;7405466;19;19983;-59
2023/06/11 07:11:07;;;;;;;6.10;2.67;;;25.00;64.00;;;;;;7407949;19;19994;-60
2023/06/11 07:13:37;;;;;;;5.15;3.28;;;25.00;64.50;;;;;;7407080;19;20691;-59
2023/06/11 07:16:07;;;;;;;5.20;3.22;;;25.00;63.90;;;;;;7407681;19;19940;-60
2023/06/11 07:18:36;;;;;;;4.63;2.92;;;25.00;63.90;;;;;;7406728;19;19922;-60
2023/06/11 07:21:09;;;;;;;5.85;3.20;;;25.00;63.80;;;;;;7407660;19;20568;-60
2023/06/11 07:23:38;;;;;;;4.68;3.45;;;25.10;63.90;;;;;;7407461;19;19918;-59
2023/06/11 07:26:08;;;;;;;;;;;25.10;63.80;;;;;;7408530;19;19940;-59
2023/06/11 07:28:37;;;;;;;5.88;2.60;;;25.10;63.80;;;;;;7407132;19;19989;-60
2023/06/11 07:31:06;;;;;;;5.60;3.05;;;25.10;63.80;;;;;;7406517;19;19915;-60
2023/06/11 07:33:35;;;;;;;4.55;2.75;;;25.10;63.80;;;;;;7405437;19;19918;-60
2023/06/11 07:36:04;;;;;;;;;;;25.10;63.80;;;;;;7407739;19;20285;-59
2023/06/11 07:38:36;;;;;;;4.18;2.78;;;25.10;63.70;;;;;;7407224;19;19946;-60
2023/06/11 07:41:06;;;;;;;6.65;2.92;;;25.10;63.70;;;;;;7406026;19;19933;-60
2023/06/11 07:43:39;;;;;;;5.35;2.58;;;25.10;63.70;;;;;;7406828;19;19923;-59
2023/06/11 07:46:08;;;;;;;4.85;2.63;;;25.20;63.80;;;;;;7405413;19;19914;-60
2023/06/11 07:48:41;;;;;;;4.70;3.33;;;25.20;63.70;;;;;;7407251;19;19919;-60
2023/06/11 07:51:10;;;;;;;4.20;2.55;;;25.20;63.70;;;;;;7406728;19;19915;-59
2023/06/11 07:53:45;;;;;;;4.80;3.03;;;25.20;63.60;;;;;;7407175;19;19919;-60
2023/06/11 07:56:14;;;;;;;4.35;2.67;;;25.20;63.60;;;;;;7405589;19;19919;-60
2023/06/11 07:58:44;;;;;;;4.78;2.65;;;25.20;63.60;;;;;;7407415;19;19915;-60
2023/06/11 08:01:13;;;;;;;;;;;25.20;63.50;;;;;;7408950;19;19918;-59
2023/06/11 08:03:42;;;;;;;4.07;2.38;;;25.30;63.60;;;;;;7405470;19;19922;-61
2023/06/11 08:06:11;;;;;;;4.80;2.65;;;25.30;63.60;;;;;;7406634;19;19918;-60
2023/06/11 08:08:44;;;;;;;4.40;3.05;;;25.30;63.50;;;;;;7403063;19;19927;-60
2023/06/11 08:11:13;;;;;;;5.88;3.00;;;25.30;63.50;;;;;;7406349;19;19935;-59
2023/06/11 08:13:44;;;;;;;4.72;2.92;;;25.30;63.50;;;;;;7404771;19;19918;-60
2023/06/11 08:16:15;;;;;;;4.32;2.83;;;25.30;63.50;;;;;;7406450;19;20259;-60
2023/06/11 08:18:47;;;;;;;4.05;2.83;;;25.30;63.40;;;;;;7406234;19;20252;-60
2023/06/11 08:21:18;;;;;;;3.58;2.28;;;25.30;63.50;;;;;;7406264;19;19914;-60
2023/06/11 08:23:54;;;;;;;4.53;2.72;;;25.40;63.80;;;;;;7404756;19;19921;-60
2023/06/11 08:26:25;;;;;;;5.30;2.78;;;25.30;63.40;;;;;;7405942;19;19933;-60
2023/06/11 08:28:54;;;;;;;5.07;3.00;;;25.40;63.40;;;;;;7405811;19;20016;-61
2023/06/11 08:31:24;;;;;;;5.25;2.97;;;25.40;63.40;;;;;;7405889;19;19923;-60
2023/06/11 08:33:53;;;;;;;4.28;2.58;;;25.40;63.40;;;;;;7404633;19;19910;-60
2023/06/11 08:36:23;;;;;;;4.82;2.83;;;25.40;63.30;;;;;;7404390;19;20487;-60
2023/06/11 08:38:54;;;;;;;;;;;25.50;63.40;;;;;;7408089;19;19959;-60
2023/06/11 08:41:23;;;;;;;5.07;2.83;;;25.50;63.40;;;;;;7405973;19;19919;-60
2023/06/11 08:43:52;;;;;;;4.35;2.47;;;25.50;63.30;;;;;;7404353;19;20340;-59
2023/06/11 08:46:24;;;;;;;5.00;2.33;;;25.50;63.30;;;;;;7405174;19;19929;-60
2023/06/11 08:49:00;;;;;;;4.07;2.72;;;25.50;63.30;;;;;;7404617;19;20343;-58
2023/06/11 08:51:30;;;;;;;4.40;2.63;;;25.50;63.80;;;;;;7405174;19;19918;-60
2023/06/11 08:54:12;;;;;;;3.55;2.40;;;25.50;63.30;;;;;;7406068;19;19952;-59
2023/06/11 08:56:41;;;;;;;6.03;2.88;;;25.60;63.30;;;;;;7405492;19;20280;-59
2023/06/11 08:59:12;;;;;;;4.45;2.85;;;25.50;63.20;;;;;;7405707;19;19926;-61
2023/06/11 09:01:42;;;;;;;5.15;2.80;;;25.50;63.20;;;;;;7405368;19;20004;-60
2023/06/11 09:04:11;;;;;;;4.70;2.85;;;25.50;63.20;;;;;;7403277;19;19919;-60
2023/06/11 09:06:51;;;;;;;4.85;2.92;;;25.60;63.30;;;;;;7406134;19;19978;-60
2023/06/11 09:09:25;;;;;;;3.53;2.40;;;25.60;63.30;;;;;;7400750;19;20288;-60
2023/06/11 09:11:54;;;;;;;4.80;3.17;;;25.60;63.30;;;;;;7404437;19;20328;-60
2023/06/11 09:14:23;;;;;;;4.15;2.97;;;25.60;63.30;;;;;;7404931;19;20292;-60
2023/06/11 09:16:52;;;;;;;4.70;3.20;;;25.60;63.20;;;;;;7404077;19;19914;-60
2023/06/11 09:19:23;;;;;;;3.83;2.55;;;25.70;63.30;;;;;;7404121;19;19922;-61
2023/06/11 09:21:53;;;;;;;3.92;2.85;;;25.70;63.20;;;;;;7404050;19;19946;-60
2023/06/11 09:24:26;;;;;;;4.97;2.97;;;25.70;63.20;;;;;;7403066;19;20363;-60
2023/06/11 09:26:57;;;;;;;5.68;3.22;;;25.70;63.20;;;;;;7405060;19;19918;-59
2023/06/11 09:29:27;;;;;;;4.88;3.25;;;25.70;63.20;;;;;;7404594;19;20372;-62
2023/06/11 09:32:05;;;;;;;5.05;3.03;;;25.70;63.20;;;;;;7403208;19;19922;-59
2023/06/11 09:34:34;;;;;;;4.07;2.50;;;25.80;63.20;;;;;;7404938;19;19918;-62
2023/06/11 09:37:03;;;;;;;4.38;3.05;;;25.80;63.20;;;;;;7402464;19;19946;-60
2023/06/11 09:39:35;;;;;;;3.72;2.40;;;25.80;63.20;;;;;;7404939;19;20303;-60
2023/06/11 09:42:05;;;;;;;4.82;2.47;;;25.80;63.10;;;;;;7403740;19;19982;-60
2023/06/11 09:44:38;;;;;;;5.25;2.92;;;25.80;63.10;;;;;;7401616;19;19926;-60
2023/06/11 09:47:08;;;;;;;3.55;2.55;;;25.90;63.10;;;;;;7403126;19;19939;-60
2023/06/11 09:49:37;;;;;;;4.95;3.22;;;25.90;63.10;;;;;;7403493;19;19919;-60
2023/06/11 09:52:08;;;;;;;4.22;2.95;;;25.90;63.00;;;;;;7403054;19;19930;-60
2023/06/11 09:54:41;;;;;;;4.28;3.10;;;26.00;63.10;;;;;;7402748;19;19922;-60
2023/06/11 09:57:11;;;;;;;4.57;2.85;;;25.90;63.00;;;;;;7402715;19;20415;-60
2023/06/11 09:59:42;;;;;;;3.90;2.85;;;26.00;63.00;;;;;;7403953;19;19978;-60
2023/06/11 10:02:11;;;;;;;5.70;2.85;;;26.00;62.90;;;;;;7401301;19;19939;-60
2023/06/11 10:04:40;;;;;;;4.50;2.63;;;26.00;62.90;;;;;;7402593;19;20387;-60
2023/06/11 10:07:12;;;;;;;4.63;2.75;;;26.00;62.90;;;;;;7402771;19;19919;-60
2023/06/11 10:09:46;;;;;;;3.63;2.50;;;26.10;62.90;;;;;;7402487;19;19922;-59
2023/06/11 10:12:18;;;;;;;3.63;2.63;;;26.10;62.80;;;;;;7402231;19;20272;-60
2023/06/11 10:14:53;;;;;;;4.82;3.35;;;26.10;62.80;;;;;;7402875;19;20336;-60
2023/06/11 10:17:23;;;;;;;;;;;26.20;62.90;;;;;;7405594;19;19915;-60
2023/06/11 10:19:55;;;;;;;4.35;2.80;;;26.20;63.00;;;;;;7401079;19;19915;-59
2023/06/11 10:22:34;;;;;;;4.38;3.17;;;26.20;62.90;;;;;;7402188;19;19931;-60
2023/06/11 10:25:07;;;;;;;4.93;2.85;;;26.20;62.90;;;;;;7401222;19;19914;-60
2023/06/11 10:27:41;;;;;;;5.82;2.45;;;26.20;62.90;;;;;;7402424;19;19918;-60
2023/06/11 10:30:11;;;;;;;4.55;2.92;;;26.30;62.90;;;;;;7402883;19;19919;-60
2023/06/11 10:32:53;;;;;;;4.15;2.78;;;26.30;62.90;;;;;;7401777;19;19925;-60
2023/06/11 10:35:28;;;;;;;4.57;2.72;;;26.30;62.90;;;;;;7398766;19;19919;-60
2023/06/11 10:38:16;;;;;;;3.92;2.55;;;26.30;62.90;;;;;;7401891;19;19935;-60
2023/06/11 10:40:48;;;;;;;4.25;2.85;;;26.30;62.80;;;;;;7401259;19;19922;-60
2023/06/11 10:43:22;;;;;;;4.53;3.08;;;26.40;62.90;;;;;;7399681;19;19923;-59
2023/06/11 10:46:03;;;;;;;4.72;2.75;;;26.30;62.80;;;;;;7404561;19;20267;-60
2023/06/11 10:48:33;;;;;;;;;;;26.40;63.10;;;;;;7411197;19;19938;-60
2023/06/11 10:51:03;;;;;;;5.35;3.45;;;26.40;63.30;;;;;;7409102;19;19949;-60
2023/06/11 10:53:42;;;;;;;4.28;2.80;;;26.40;63.30;;;;;;7407863;19;20285;-60
2023/06/11 10:56:15;;;;;;;5.20;3.10;;;26.40;63.20;;;;;;7408092;19;19919;-60
2023/06/11 10:58:53;;;;;;;4.10;3.55;;;26.40;63.10;;;;;;7407789;19;19914;-60
2023/06/11 11:01:25;;;;;;;5.45;3.63;;;26.40;63.30;;;;;;7407976;19;19986;-60
2023/06/11 11:03:56;;;;;;;4.57;3.15;;;26.40;63.20;;;;;;7406256;19;19918;-60
2023/06/11 11:06:28;;;;;;;4.45;2.70;;;26.40;63.10;;;;;;7405943;19;19919;-60
2023/06/11 11:08:59;;;;;;;4.68;3.08;;;26.50;63.20;;;;;;7406891;19;19929;-59
2023/06/11 11:11:40;;;;;;;4.72;2.63;;;26.50;63.20;;;;;;7408585;19;19914;-60
2023/06/11 11:14:09;;;;;;;5.28;3.03;;;26.50;63.20;;;;;;7408068;19;20357;-60
2023/06/11 11:16:38;;;;;;;4.30;3.13;;;26.60;63.30;;;;;;7408270;19;19922;-60
2023/06/11 11:19:13;;;;;;;5.45;3.30;;;26.60;63.30;;;;;;7407669;19;19926;-60
2023/06/11 11:21:43;;;;;;;4.07;3.15;;;26.60;63.30;;;;;;7407093;19;19924;-60
2023/06/11 11:24:12;;;;;;;4.45;3.00;;;26.60;63.30;;;;;;7407211;19;20332;-60
2023/06/11 11:26:46;;;;;;;4.00;3.03;;;26.60;63.30;;;;;;7404674;19;19925;-60
2023/06/11 11:29:16;;;;;;;5.75;3.63;;;26.60;63.30;;;;;;7407646;19;20284;-60
2023/06/11 11:31:46;;;;;;;5.10;3.72;;;26.70;63.40;;;;;;7407552;19;20380;-59
2023/06/11 11:34:15;;;;;;;4.28;3.42;;;26.70;63.40;;;;;;7406494;19;19923;-59
2023/06/11 11:36:48;;;;;;;4.65;3.80;;;26.70;63.30;;;;;;7405202;19;19990;-59
2023/06/11 11:39:17;;;;;;;4.18;3.28;;;26.70;63.30;;;;;;7407522;19;19918;-60
2023/06/11 11:41:55;;;;;;;6.05;3.05;;;26.80;63.90;;;;;;7407426;19;19915;-60
2023/06/11 11:44:34;;;;;;;4.38;3.45;;;26.80;63.30;;;;;;7404941;19;19943;-60
2023/06/11 11:47:24;;;;;;;4.78;2.95;;;26.80;63.30;;;;;;7406708;19;19922;-60
2023/06/11 11:50:21;;;;;;;5.05;3.78;;;26.80;63.30;;;;;;7406365;19;19918;-60
2023/06/11 11:53:02;;;;;;;5.18;3.47;;;26.90;63.30;;;;;;7407128;19;19919;-60
2023/06/11 11:55:32;;;;;;;4.32;3.17;;;26.90;63.30;;;;;;7406121;19;19911;-59
2023/06/11 11:58:14;;;;;;;7.03;4.22;;;26.90;63.30;;;;;;7406776;19;19919;-60
2023/06/11 12:01:02;;;;;;;4.57;3.78;;;26.90;63.20;;;;;;7406829;19;20252;-60
2023/06/11 12:03:32;;;;;;;4.35;3.30;;;27.00;63.20;;;;;;7405054;19;19915;-60
2023/06/11 12:06:03;;;;;;;4.80;3.15;;;27.00;63.20;;;;;;7404720;19;19970;-59
2023/06/11 12:08:51;;;;;;;5.28;3.75;;;27.00;63.10;;;;;;7404530;19;19929;-60
2023/06/11 12:11:20;;;;;;;4.45;3.58;;;27.00;63.10;;;;;;7406024;19;19918;-60
2023/06/11 12:13:52;;;;;;;4.25;3.58;;;27.00;62.90;;;;;;7405691;19;19940;-60
2023/06/11 12:16:25;;;;;;;5.47;4.22;;;27.00;62.80;;;;;;7406605;19;19922;-60
2023/06/11 12:18:55;;;;;;;4.60;3.58;;;27.00;62.70;;;;;;7406439;19;19935;-61
2023/06/11 12:21:24;;;;;;;4.40;3.78;;;27.00;62.50;;;;;;7406311;19;20241;-59
2023/06/11 12:23:53;;;;;;;5.90;4.13;;;27.00;62.60;;;;;;7405025;19;19943;-59
2023/06/11 12:26:23;;;;;;;5.65;3.50;;;27.00;62.60;;;;;;7405306;19;19919;-60
2023/06/11 12:28:55;;;;;;;;;;;27.00;62.60;;;;;;7408116;19;19935;-59
2023/06/11 12:31:45;;;;;;;4.68;3.83;;;27.10;62.60;;;;;;7404923;19;19922;-59
2023/06/11 12:34:34;;;;;;;5.43;4.03;;;27.10;62.60;;;;;;7402866;19;19942;-60
2023/06/11 12:37:24;;;;;;;6.95;4.00;;;27.20;62.60;;;;;;7402590;19;19927;-60
2023/06/11 12:40:15;;;;;;;4.18;3.55;;;27.20;62.40;;;;;;7404681;19;19982;-60
2023/06/11 12:43:04;;;;;;;5.15;3.63;;;27.30;62.40;;;;;;7402902;19;20336;-60
2023/06/11 12:45:55;;;;;;;4.75;3.85;;;27.40;62.50;;;;;;7402874;19;19918;-60
2023/06/11 12:48:44;;;;;;;5.10;3.72;;;27.30;62.30;;;;;;7403347;19;19915;-60
2023/06/11 12:51:33;;;;;;;4.25;3.72;;;27.30;62.30;;;;;;7403616;19;19931;-60
2023/06/11 12:54:23;;;;;;;5.88;4.13;;;27.40;62.40;;;;;;7403382;19;19926;-60
2023/06/11 12:57:15;;;;;;;4.07;3.20;;;27.40;62.30;;;;;;7403387;19;19919;-59
2023/06/11 13:00:05;;;;;;;5.35;3.88;;;27.40;62.30;;;;;;7402759;19;19970;-60
2023/06/11 13:02:57;;;;;;;4.65;3.75;;;27.50;62.40;;;;;;7401909;19;19926;-60
2023/06/11 13:05:46;;;;;;;6.20;4.00;;;27.50;62.40;;;;;;7401539;19;19918;-60
2023/06/11 13:08:35;;;;;;;4.90;3.40;;;27.50;62.40;;;;;;7399012;19;19930;-60
2023/06/11 13:11:24;;;;;;;6.10;3.30;;;27.50;62.30;;;;;;7403279;19;19934;-60
2023/06/11 13:14:14;;;;;;;6.20;3.95;;;27.60;62.40;;;;;;7401656;19;19926;-60
2023/06/11 13:17:03;;;;;;;7.10;3.83;;;27.60;62.40;;;;;;7403199;19;20275;-60
2023/06/11 13:19:57;;;;;;;4.60;3.63;;;27.60;62.20;;;;;;7401774;19;19930;-59
2023/06/11 13:22:46;;;;;;;5.75;4.07;;;27.60;62.20;;;;;;7403404;19;19992;-59
2023/06/11 13:25:36;;;;;;;4.10;3.20;;;27.60;62.20;;;;;;7402011;19;19951;-58